sensor_id;sensor_type;location;lat;lon;timestamp;temperature;humidity
2993;DHT22;1506;48.932;9.478;2023-04-25T00:02:26;9.20;57.00
2993;DHT22;1506;48.932;9.478;2023-04-25T00:04:55;9.10;76.20
2993;DHT22;1506;48.932;9.478;2023-04-25T00:07:25;9.00;77.90
2993;DHT22;1506;48.932;9.478;2023-04-25T00:09:52;8.90;9.40
2993;DHT22;1506;48.932;9.478;2023-04-25T00:12:19;8.80;43.60
2993;DHT22;1506;48.932;9.478;2023-04-25T00:14:46;8.60;55.70
2993;DHT22;1506;48.932;9.478;2023-04-25T00:17:13;8.50;78.50
2993;DHT22;1506;48.932;9.478;2023-04-25T00:19:40;8.50;98.90
2993;DHT22;1506;48.932;9.478;2023-04-25T00:22:08;8.50;99.90
2993;DHT22;1506;48.932;9.478;2023-04-25T00:24:34;8.50;99.90
2993;DHT22;1506;48.932;9.478;2023-04-25T00:27:01;8.50;99.90
2993;DHT22;1506;48.932;9.478;2023-04-25T00:29:28;8.40;99.90
2993;DHT22;1506;48.932;9.478;2023-04-25T00:31:55;8.40;99.90
2993;DHT22;1506;48.932;9.478;2023-04-25T00:34:23;8.50;99.90
2993;DHT22;1506;48.932;9.478;2023-04-25T00:36:50;8.50;99.90
2993;DHT22;1506;48.932;9.478;2023-04-25T00:39:17;8.40;95.90
2993;DHT22;1506;48.932;9.478;2023-04-25T00:41:44;8.40;95.30
2993;DHT22;1506;48.932;9.478;2023-04-25T00:44:12;8.30;83.60
2993;DHT22;1506;48.932;9.478;2023-04-25T00:46:40;8.20;90.90
2993;DHT22;1506;48.932;9.478;2023-04-25T00:49:07;8.00;99.90
2993;DHT22;1506;48.932;9.478;2023-04-25T00:51:35;7.90;99.90
2993;DHT22;1506;48.932;9.478;2023-04-25T00:54:02;7.90;99.90
2993;DHT22;1506;48.932;9.478;2023-04-25T00:56:30;7.90;99.90
2993;DHT22;1506;48.932;9.478;2023-04-25T00:58:57;7.90;99.90
2993;DHT22;1506;48.932;9.478;2023-04-25T01:01:24;7.90;99.90
2993;DHT22;1506;48.932;9.478;2023-04-25T01:03:53;8.00;99.90
2993;DHT22;1506;48.932;9.478;2023-04-25T01:06:21;8.00;99.90
2993;DHT22;1506;48.932;9.478;2023-04-25T01:08:49;8.00;99.90
2993;DHT22;1506;48.932;9.478;2023-04-25T01:11:16;8.00;99.90
2993;DHT22;1506;48.932;9.478;2023-04-25T01:13:43;7.90;90.60
2993;DHT22;1506;48.932;9.478;2023-04-25T01:16:10;7.80;98.00
2993;DHT22;1506;48.932;9.478;2023-04-25T01:18:41;7.90;99.90
2993;DHT22;1506;48.932;9.478;2023-04-25T01:21:10;7.90;92.40
2993;DHT22;1506;48.932;9.478;2023-04-25T01:23:40;7.90;97.00
2993;DHT22;1506;48.932;9.478;2023-04-25T01:26:11;7.80;99.90
2993;DHT22;1506;48.932;9.478;2023-04-25T01:28:40;7.80;99.90
2993;DHT22;1506;48.932;9.478;2023-04-25T01:31:09;7.90;99.90
2993;DHT22;1506;48.932;9.478;2023-04-25T01:33:37;7.90;99.90
2993;DHT22;1506;48.932;9.478;2023-04-25T01:36:05;8.00;99.90
2993;DHT22;1506;48.932;9.478;2023-04-25T01:38:34;8.00;99.90
2993;DHT22;1506;48.932;9.478;2023-04-25T01:41:02;8.00;99.90
2993;DHT22;1506;48.932;9.478;2023-04-25T01:43:29;8.00;99.90
2993;DHT22;1506;48.932;9.478;2023-04-25T01:45:56;8.10;99.90
2993;DHT22;1506;48.932;9.478;2023-04-25T01:48:24;8.10;99.90
2993;DHT22;1506;48.932;9.478;2023-04-25T01:50:51;8.10;99.90
2993;DHT22;1506;48.932;9.478;2023-04-25T01:53:18;8.20;99.90
2993;DHT22;1506;48.932;9.478;2023-04-25T01:55:46;8.30;99.90
2993;DHT22;1506;48.932;9.478;2023-04-25T01:58:16;8.30;99.90
2993;DHT22;1506;48.932;9.478;2023-04-25T02:01:02;8.40;99.90
2993;DHT22;1506;48.932;9.478;2023-04-25T02:03:36;8.30;99.90
2993;DHT22;1506;48.932;9.478;2023-04-25T02:06:08;8.30;99.90
2993;DHT22;1506;48.932;9.478;2023-04-25T02:08:39;8.30;99.90
2993;DHT22;1506;48.932;9.478;2023-04-25T02:11:06;8.20;99.90
2993;DHT22;1506;48.932;9.478;2023-04-25T02:13:40;8.20;99.90
2993;DHT22;1506;48.932;9.478;2023-04-25T02:16:45;8.20;99.90
2993;DHT22;1506;48.932;9.478;2023-04-25T02:19:13;8.10;99.90
2993;DHT22;1506;48.932;9.478;2023-04-25T02:21:41;8.00;99.90
2993;DHT22;1506;48.932;9.478;2023-04-25T02:24:10;8.00;99.90
2993;DHT22;1506;48.932;9.478;2023-04-25T02:26:37;7.90;99.90
2993;DHT22;1506;48.932;9.478;2023-04-25T02:29:07;7.80;99.90
2993;DHT22;1506;48.932;9.478;2023-04-25T02:31:34;7.80;99.90
2993;DHT22;1506;48.932;9.478;2023-04-25T02:34:02;7.80;99.90
2993;DHT22;1506;48.932;9.478;2023-04-25T02:36:29;7.80;99.90
2993;DHT22;1506;48.932;9.478;2023-04-25T02:38:58;7.80;99.90
2993;DHT22;1506;48.932;9.478;2023-04-25T02:41:27;7.90;99.90
2993;DHT22;1506;48.932;9.478;2023-04-25T02:43:54;7.80;99.90
2993;DHT22;1506;48.932;9.478;2023-04-25T02:46:21;7.60;99.90
2993;DHT22;1506;48.932;9.478;2023-04-25T02:49:03;7.50;99.90
2993;DHT22;1506;48.932;9.478;2023-04-25T02:51:31;7.40;99.90
2993;DHT22;1506;48.932;9.478;2023-04-25T02:53:59;7.40;99.90
2993;DHT22;1506;48.932;9.478;2023-04-25T02:56:26;7.50;99.90
2993;DHT22;1506;48.932;9.478;2023-04-25T02:58:54;7.50;99.90
2993;DHT22;1506;48.932;9.478;2023-04-25T03:01:21;7.60;99.90
2993;DHT22;1506;48.932;9.478;2023-04-25T03:03:48;7.60;99.90
2993;DHT22;1506;48.932;9.478;2023-04-25T03:06:15;7.60;99.90
2993;DHT22;1506;48.932;9.478;2023-04-25T03:08:43;7.70;99.90
2993;DHT22;1506;48.932;9.478;2023-04-25T03:11:10;7.80;99.90
2993;DHT22;1506;48.932;9.478;2023-04-25T03:13:37;7.70;99.90
2993;DHT22;1506;48.932;9.478;2023-04-25T03:16:07;7.80;99.90
2993;DHT22;1506;48.932;9.478;2023-04-25T03:18:34;7.80;99.90
2993;DHT22;1506;48.932;9.478;2023-04-25T03:21:01;7.90;99.90
2993;DHT22;1506;48.932;9.478;2023-04-25T03:23:30;7.90;99.90
2993;DHT22;1506;48.932;9.478;2023-04-25T03:25:57;7.90;99.90
2993;DHT22;1506;48.932;9.478;2023-04-25T03:28:24;8.00;99.90
2993;DHT22;1506;48.932;9.478;2023-04-25T03:30:53;7.90;99.90
2993;DHT22;1506;48.932;9.478;2023-04-25T03:33:21;8.00;99.90
2993;DHT22;1506;48.932;9.478;2023-04-25T03:35:48;8.00;99.90
2993;DHT22;1506;48.932;9.478;2023-04-25T03:38:17;8.00;99.90
2993;DHT22;1506;48.932;9.478;2023-04-25T03:40:44;8.00;99.90
2993;DHT22;1506;48.932;9.478;2023-04-25T03:43:17;8.10;99.90
2993;DHT22;1506;48.932;9.478;2023-04-25T03:45:51;8.10;99.90
2993;DHT22;1506;48.932;9.478;2023-04-25T03:48:21;8.10;99.90
2993;DHT22;1506;48.932;9.478;2023-04-25T03:50:49;8.20;99.90
2993;DHT22;1506;48.932;9.478;2023-04-25T03:53:16;8.20;99.90
2993;DHT22;1506;48.932;9.478;2023-04-25T03:56:03;8.30;99.90
2993;DHT22;1506;48.932;9.478;2023-04-25T03:58:33;8.30;99.90
2993;DHT22;1506;48.932;9.478;2023-04-25T04:01:00;8.30;99.90
2993;DHT22;1506;48.932;9.478;2023-04-25T04:03:30;8.30;99.90
2993;DHT22;1506;48.932;9.478;2023-04-25T04:05:58;8.30;99.90
2993;DHT22;1506;48.932;9.478;2023-04-25T04:08:26;8.30;99.90
2993;DHT22;1506;48.932;9.478;2023-04-25T04:10:53;8.30;99.90
2993;DHT22;1506;48.932;9.478;2023-04-25T04:13:20;8.30;99.90
2993;DHT22;1506;48.932;9.478;2023-04-25T04:15:47;8.30;99.90
2993;DHT22;1506;48.932;9.478;2023-04-25T04:18:14;8.20;99.90
2993;DHT22;1506;48.932;9.478;2023-04-25T04:20:42;8.30;99.90
2993;DHT22;1506;48.932;9.478;2023-04-25T04:23:09;8.20;99.90
2993;DHT22;1506;48.932;9.478;2023-04-25T04:25:36;8.20;99.90
2993;DHT22;1506;48.932;9.478;2023-04-25T04:28:08;8.20;99.90
2993;DHT22;1506;48.932;9.478;2023-04-25T04:30:40;8.20;99.90
2993;DHT22;1506;48.932;9.478;2023-04-25T04:33:09;8.20;99.90
2993;DHT22;1506;48.932;9.478;2023-04-25T04:35:36;8.30;99.90
2993;DHT22;1506;48.932;9.478;2023-04-25T04:38:04;8.30;99.90
2993;DHT22;1506;48.932;9.478;2023-04-25T04:40:33;8.40;99.90
2993;DHT22;1506;48.932;9.478;2023-04-25T04:43:07;8.40;99.90
2993;DHT22;1506;48.932;9.478;2023-04-25T04:46:02;8.40;99.90
2993;DHT22;1506;48.932;9.478;2023-04-25T04:48:54;8.40;99.90
2993;DHT22;1506;48.932;9.478;2023-04-25T04:51:58;8.40;99.90
2993;DHT22;1506;48.932;9.478;2023-04-25T04:54:53;8.40;99.90
2993;DHT22;1506;48.932;9.478;2023-04-25T04:57:47;8.40;99.90
2993;DHT22;1506;48.932;9.478;2023-04-25T05:00:43;8.40;91.40
2993;DHT22;1506;48.932;9.478;2023-04-25T05:03:28;8.40;84.00
2993;DHT22;1506;48.932;9.478;2023-04-25T05:06:22;8.40;93.90
2993;DHT22;1506;48.932;9.478;2023-04-25T05:09:07;8.40;93.60
2993;DHT22;1506;48.932;9.478;2023-04-25T05:12:00;8.60;94.50
2993;DHT22;1506;48.932;9.478;2023-04-25T05:14:37;8.70;79.40
2993;DHT22;1506;48.932;9.478;2023-04-25T05:17:16;8.80;61.20
2993;DHT22;1506;48.932;9.478;2023-04-25T05:20:07;9.00;48.50
2993;DHT22;1506;48.932;9.478;2023-04-25T05:22:58;9.20;39.30
2993;DHT22;1506;48.932;9.478;2023-04-25T05:26:03;9.30;1.00
2993;DHT22;1506;48.932;9.478;2023-04-25T05:28:57;9.20;5.60
2993;DHT22;1506;48.932;9.478;2023-04-25T05:31:30;9.30;1.00
2993;DHT22;1506;48.932;9.478;2023-04-25T05:34:05;9.20;1.00
2993;DHT22;1506;48.932;9.478;2023-04-25T05:36:50;9.20;1.00
2993;DHT22;1506;48.932;9.478;2023-04-25T05:39:18;9.00;1.00
2993;DHT22;1506;48.932;9.478;2023-04-25T05:42:05;8.90;17.10
2993;DHT22;1506;48.932;9.478;2023-04-25T05:44:50;9.00;20.90
2993;DHT22;1506;48.932;9.478;2023-04-25T05:47:25;9.00;10.20
2993;DHT22;1506;48.932;9.478;2023-04-25T05:50:14;9.10;1.00
2993;DHT22;1506;48.932;9.478;2023-04-25T05:53:04;9.20;1.00
2993;DHT22;1506;48.932;9.478;2023-04-25T05:55:38;9.60;12.80
2993;DHT22;1506;48.932;9.478;2023-04-25T05:58:23;10.90;1.00
2993;DHT22;1506;48.932;9.478;2023-04-25T06:00:51;11.30;99.90
2993;DHT22;1506;48.932;9.478;2023-04-25T06:03:18;10.90;1.00
2993;DHT22;1506;48.932;9.478;2023-04-25T06:05:48;10.70;1.00
2993;DHT22;1506;48.932;9.478;2023-04-25T06:08:15;10.50;99.90
2993;DHT22;1506;48.932;9.478;2023-04-25T06:10:42;10.20;99.90
2993;DHT22;1506;48.932;9.478;2023-04-25T06:13:09;10.10;99.90
2993;DHT22;1506;48.932;9.478;2023-04-25T06:15:37;10.00;1.00
2993;DHT22;1506;48.932;9.478;2023-04-25T06:18:04;9.90;1.00
2993;DHT22;1506;48.932;9.478;2023-04-25T06:20:32;9.80;1.00
2993;DHT22;1506;48.932;9.478;2023-04-25T06:23:00;9.80;1.00
2993;DHT22;1506;48.932;9.478;2023-04-25T06:25:37;10.00;1.00
2993;DHT22;1506;48.932;9.478;2023-04-25T06:28:04;10.30;99.90
2993;DHT22;1506;48.932;9.478;2023-04-25T06:30:32;10.30;1.00
2993;DHT22;1506;48.932;9.478;2023-04-25T06:33:04;10.30;13.30
2993;DHT22;1506;48.932;9.478;2023-04-25T06:35:32;10.30;1.00
2993;DHT22;1506;48.932;9.478;2023-04-25T06:37:59;10.40;1.00
2993;DHT22;1506;48.932;9.478;2023-04-25T06:40:27;10.60;1.00
2993;DHT22;1506;48.932;9.478;2023-04-25T06:42:54;10.90;99.90
2993;DHT22;1506;48.932;9.478;2023-04-25T06:45:53;11.00;99.90
2993;DHT22;1506;48.932;9.478;2023-04-25T06:48:21;10.90;99.90
2993;DHT22;1506;48.932;9.478;2023-04-25T06:50:49;11.20;99.90
2993;DHT22;1506;48.932;9.478;2023-04-25T06:53:17;11.40;1.00
2993;DHT22;1506;48.932;9.478;2023-04-25T06:55:49;11.40;1.00
2993;DHT22;1506;48.932;9.478;2023-04-25T07:03:36;10.70;1.00
2993;DHT22;1506;48.932;9.478;2023-04-25T07:06:09;10.60;99.90
2993;DHT22;1506;48.932;9.478;2023-04-25T07:08:36;10.60;1.00
2993;DHT22;1506;48.932;9.478;2023-04-25T07:11:03;10.80;1.00
2993;DHT22;1506;48.932;9.478;2023-04-25T07:13:30;10.80;99.90
2993;DHT22;1506;48.932;9.478;2023-04-25T07:15:57;10.90;99.90
2993;DHT22;1506;48.932;9.478;2023-04-25T07:18:26;11.00;1.00
2993;DHT22;1506;48.932;9.478;2023-04-25T07:20:54;11.00;39.00
2993;DHT22;1506;48.932;9.478;2023-04-25T07:23:22;10.90;99.90
2993;DHT22;1506;48.932;9.478;2023-04-25T07:25:49;10.90;1.00
2993;DHT22;1506;48.932;9.478;2023-04-25T07:28:20;10.80;99.90
2993;DHT22;1506;48.932;9.478;2023-04-25T08:11:27;10.80;99.90
2993;DHT22;1506;48.932;9.478;2023-04-25T08:13:54;10.60;1.00
2993;DHT22;1506;48.932;9.478;2023-04-25T08:16:21;10.50;1.00
2993;DHT22;1506;48.932;9.478;2023-04-25T08:18:50;10.30;1.00
2993;DHT22;1506;48.932;9.478;2023-04-25T08:21:17;10.30;1.00
2993;DHT22;1506;48.932;9.478;2023-04-25T08:23:45;10.10;1.00
2993;DHT22;1506;48.932;9.478;2023-04-25T08:26:20;10.00;1.00
2993;DHT22;1506;48.932;9.478;2023-04-25T08:28:49;9.90;26.00
2993;DHT22;1506;48.932;9.478;2023-04-25T08:31:17;9.30;65.70
2993;DHT22;1506;48.932;9.478;2023-04-25T08:34:03;9.00;99.90
2993;DHT22;1506;48.932;9.478;2023-04-25T08:36:39;9.00;99.90
2993;DHT22;1506;48.932;9.478;2023-04-25T08:39:28;9.00;99.90
2993;DHT22;1506;48.932;9.478;2023-04-25T08:49:45;9.90;99.90
2993;DHT22;1506;48.932;9.478;2023-04-25T08:52:15;10.00;1.00
2993;DHT22;1506;48.932;9.478;2023-04-25T08:54:49;10.20;20.30
2993;DHT22;1506;48.932;9.478;2023-04-25T08:57:17;10.30;1.00
2993;DHT22;1506;48.932;9.478;2023-04-25T08:59:46;10.40;1.00
2993;DHT22;1506;48.932;9.478;2023-04-25T09:02:15;10.70;1.00
2993;DHT22;1506;48.932;9.478;2023-04-25T09:25:37;11.30;1.00
2993;DHT22;1506;48.932;9.478;2023-04-25T09:28:07;11.40;1.00
2993;DHT22;1506;48.932;9.478;2023-04-25T09:30:36;11.20;99.90
2993;DHT22;1506;48.932;9.478;2023-04-25T09:54:28;12.10;1.00
2993;DHT22;1506;48.932;9.478;2023-04-25T09:57:14;12.20;99.90
2993;DHT22;1506;48.932;9.478;2023-04-25T09:59:51;12.20;1.00
2993;DHT22;1506;48.932;9.478;2023-04-25T10:02:21;12.30;1.00
2993;DHT22;1506;48.932;9.478;2023-04-25T10:04:53;12.20;99.90
2993;DHT22;1506;48.932;9.478;2023-04-25T10:07:30;12.10;1.00
2993;DHT22;1506;48.932;9.478;2023-04-25T10:10:00;11.90;1.00
2993;DHT22;1506;48.932;9.478;2023-04-25T10:12:30;11.80;99.90
2993;DHT22;1506;48.932;9.478;2023-04-25T10:14:59;11.70;1.00
2993;DHT22;1506;48.932;9.478;2023-04-25T10:17:27;11.60;1.00
2993;DHT22;1506;48.932;9.478;2023-04-25T14:31:12;11.00;27.30
2993;DHT22;1506;48.932;9.478;2023-04-25T14:33:39;11.10;1.00
2993;DHT22;1506;48.932;9.478;2023-04-25T19:03:23;8.70;1.00
2993;DHT22;1506;48.932;9.478;2023-04-25T19:05:50;8.60;23.60
2993;DHT22;1506;48.932;9.478;2023-04-25T19:08:17;8.60;12.80
2993;DHT22;1506;48.932;9.478;2023-04-25T19:10:44;8.60;50.30
2993;DHT22;1506;48.932;9.478;2023-04-25T19:13:12;8.50;37.40
2993;DHT22;1506;48.932;9.478;2023-04-25T19:23:03;8.40;70.70
2993;DHT22;1506;48.932;9.478;2023-04-25T19:25:31;8.30;76.40
2993;DHT22;1506;48.932;9.478;2023-04-25T19:28:00;8.30;98.80
2993;DHT22;1506;48.932;9.478;2023-04-25T19:30:27;8.30;99.90
2993;DHT22;1506;48.932;9.478;2023-04-25T19:32:55;8.30;99.90
2993;DHT22;1506;48.932;9.478;2023-04-25T19:35:24;8.20;98.90
2993;DHT22;1506;48.932;9.478;2023-04-25T19:37:56;8.30;99.90
2993;DHT22;1506;48.932;9.478;2023-04-25T19:57:38;8.30;99.90
2993;DHT22;1506;48.932;9.478;2023-04-25T20:00:13;8.40;99.90
2993;DHT22;1506;48.932;9.478;2023-04-25T20:02:45;8.30;99.80
2993;DHT22;1506;48.932;9.478;2023-04-25T20:05:14;8.30;91.60
2993;DHT22;1506;48.932;9.478;2023-04-25T20:07:42;8.20;95.50
2993;DHT22;1506;48.932;9.478;2023-04-25T20:10:10;8.20;99.90
2993;DHT22;1506;48.932;9.478;2023-04-25T20:12:43;8.20;99.90
2993;DHT22;1506;48.932;9.478;2023-04-25T20:15:10;8.30;99.90
2993;DHT22;1506;48.932;9.478;2023-04-25T20:17:38;8.20;99.90
2993;DHT22;1506;48.932;9.478;2023-04-25T20:35:03;8.00;99.90
2993;DHT22;1506;48.932;9.478;2023-04-25T20:37:31;8.10;99.90
2993;DHT22;1506;48.932;9.478;2023-04-25T20:39:59;7.90;99.90
2993;DHT22;1506;48.932;9.478;2023-04-25T20:42:27;7.90;99.90
2993;DHT22;1506;48.932;9.478;2023-04-25T20:44:54;8.00;99.90
2993;DHT22;1506;48.932;9.478;2023-04-25T20:49:49;8.00;99.90
